createdAt,value
2017-09-08T00:00:27.909Z,1002.09
2017-09-08T00:01:08.475Z,1002.1
2017-09-08T00:01:49.077Z,1002.07
2017-09-08T00:02:29.566Z,1002.05
2017-09-08T00:03:10.098Z,1002.07
2017-09-08T00:03:50.629Z,1002.08
2017-09-08T00:04:31.162Z,1002.07
2017-09-08T00:05:11.747Z,1002.08
2017-09-08T00:05:52.260Z,1002.07
2017-09-08T00:06:32.782Z,1002.1
2017-09-08T00:07:13.313Z,1002.11
2017-09-08T00:07:53.888Z,1002.11
2017-09-08T00:08:34.494Z,1002.07
2017-09-08T00:09:15.018Z,1002.06
2017-09-08T00:09:55.526Z,1002.1
2017-09-08T00:10:36.128Z,1002.12
2017-09-08T00:11:16.606Z,1002.05
2017-09-08T00:11:57.173Z,1002.04
2017-09-08T00:12:37.770Z,1002.07
2017-09-08T00:13:18.317Z,1002.07
2017-09-08T00:13:58.879Z,1002.05
2017-09-08T00:14:39.385Z,1002.05
2017-09-08T00:15:19.949Z,1002.1
2017-09-08T00:16:00.494Z,1002.02
2017-09-08T00:16:41.024Z,1002.02
2017-09-08T00:17:21.647Z,1002
2017-09-08T00:18:02.198Z,1002.02
2017-09-08T00:18:42.714Z,1002.03
2017-09-08T00:19:23.284Z,1002
2017-09-08T00:20:03.840Z,1002
2017-09-08T00:20:44.372Z,1001.99
2017-09-08T00:21:24.900Z,1002.06
2017-09-08T00:22:05.468Z,1001.98
2017-09-08T00:22:46.060Z,1001.95
2017-09-08T00:23:26.595Z,1002.02
2017-09-08T00:24:07.214Z,1001.97
2017-09-08T00:24:47.719Z,1001.93
2017-09-08T00:25:28.255Z,1001.96
2017-09-08T00:26:08.805Z,1001.92
2017-09-08T00:26:49.372Z,1001.96
2017-09-08T00:27:29.916Z,1001.93
2017-09-08T00:28:10.558Z,1001.88
2017-09-08T00:28:51.025Z,1001.83
2017-09-08T00:29:31.567Z,1001.87
2017-09-08T00:30:12.075Z,1001.83
2017-09-08T00:30:52.655Z,1001.84
2017-09-08T00:31:33.167Z,1001.85
2017-09-08T00:32:13.658Z,1001.83
2017-09-08T00:32:54.206Z,1001.82
2017-09-08T00:33:34.761Z,1001.87
2017-09-08T00:34:15.336Z,1001.79
2017-09-08T00:34:55.892Z,1001.84
2017-09-08T00:35:36.440Z,1001.82
2017-09-08T00:36:16.989Z,1001.78
2017-09-08T00:36:57.531Z,1001.79
2017-09-08T00:37:38.133Z,1001.79
2017-09-08T00:38:18.625Z,1001.74
2017-09-08T00:38:59.173Z,1001.78
2017-09-08T00:39:39.698Z,1001.74
2017-09-08T00:40:20.245Z,1001.71
2017-09-08T00:41:00.815Z,1001.74
2017-09-08T00:41:41.353Z,1001.73
2017-09-08T00:42:21.911Z,1001.7
2017-09-08T00:43:02.452Z,1001.68
2017-09-08T00:43:43.031Z,1001.68
2017-09-08T00:44:23.618Z,1001.71
2017-09-08T00:45:04.203Z,1001.68
2017-09-08T00:45:44.762Z,1001.66
2017-09-08T00:46:25.299Z,1001.63
2017-09-08T00:47:05.858Z,1001.63
2017-09-08T00:47:46.452Z,1001.65
2017-09-08T00:48:26.947Z,1001.66
2017-09-08T00:49:07.507Z,1001.63
2017-09-08T00:49:48.071Z,1001.63
2017-09-08T00:50:28.646Z,1001.62
2017-09-08T00:51:09.201Z,1001.63
2017-09-08T00:51:49.758Z,1001.61
2017-09-08T00:52:30.305Z,1001.61
2017-09-08T00:53:10.871Z,1001.57
2017-09-08T00:53:51.407Z,1001.54
2017-09-08T00:54:31.959Z,1001.55
2017-09-08T00:55:12.496Z,1001.48
2017-09-08T00:55:53.070Z,1001.49
2017-09-08T00:56:33.596Z,1001.47
2017-09-08T00:57:14.071Z,1001.43
2017-09-08T00:57:54.614Z,1001.44
2017-09-08T00:58:35.312Z,1001.41
2017-09-08T00:59:15.848Z,1001.36
2017-09-08T00:59:56.533Z,1001.33
2017-09-08T01:00:37.152Z,1001.33
2017-09-08T01:01:17.802Z,1001.31
2017-09-08T01:01:58.372Z,1001.32
2017-09-08T01:02:38.953Z,1001.29
2017-09-08T01:03:19.511Z,1001.28
2017-09-08T01:04:00.051Z,1001.25
2017-09-08T01:04:40.617Z,1001.32
2017-09-08T01:05:21.202Z,1001.25
2017-09-08T01:06:01.698Z,1001.22
2017-09-08T01:06:42.257Z,1001.21
2017-09-08T01:07:22.819Z,1001.26
2017-09-08T01:08:03.394Z,1001.22
2017-09-08T01:08:43.947Z,1001.2
2017-09-08T01:09:24.533Z,1001.19
2017-09-08T01:10:05.104Z,1001.21
2017-09-08T01:10:45.621Z,1001.18
2017-09-08T01:11:26.167Z,1001.15
2017-09-08T01:12:06.702Z,1001.23
2017-09-08T01:12:47.273Z,1001.26
2017-09-08T01:13:27.823Z,1001.2
2017-09-08T01:14:08.380Z,1001.19
2017-09-08T01:14:48.911Z,1001.23
2017-09-08T01:15:29.466Z,1001.25
2017-09-08T01:16:10.060Z,1001.28
2017-09-08T01:16:50.579Z,1001.26
2017-09-08T01:17:31.135Z,1001.27
2017-09-08T01:18:11.672Z,1001.28
2017-09-08T01:18:52.195Z,1001.24
2017-09-08T01:19:32.780Z,1001.26
2017-09-08T01:20:13.319Z,1001.27
2017-09-08T01:20:53.834Z,1001.24
2017-09-08T01:21:34.383Z,1001.26
2017-09-08T01:22:14.899Z,1001.24
2017-09-08T01:22:55.480Z,1001.23
2017-09-08T01:23:36.065Z,1001.23
2017-09-08T01:24:16.623Z,1001.22
2017-09-08T01:24:57.183Z,1001.19
2017-09-08T01:25:37.736Z,1001.23
2017-09-08T01:26:18.325Z,1001.21
2017-09-08T01:26:58.893Z,1001.23
2017-09-08T01:27:39.435Z,1001.21
2017-09-08T01:28:20.020Z,1001.25
2017-09-08T01:29:00.575Z,1001.21
2017-09-08T01:29:41.105Z,1001.22
2017-09-08T01:30:21.624Z,1001.21
2017-09-08T01:31:02.279Z,1001.26
2017-09-08T01:31:42.871Z,1001.25
2017-09-08T01:32:23.432Z,1001.17
2017-09-08T01:33:03.985Z,1001.17
2017-09-08T01:33:44.556Z,1001.12
2017-09-08T01:34:25.120Z,1001.13
2017-09-08T01:35:05.675Z,1001.11
2017-09-08T01:35:46.309Z,1001.11
2017-09-08T01:36:26.874Z,1001.09
2017-09-08T01:37:07.458Z,1001.07
2017-09-08T01:37:48.042Z,1001.05
2017-09-08T01:38:28.616Z,1001.07
2017-09-08T01:39:09.207Z,1001.02
2017-09-08T01:39:49.767Z,1001.02
2017-09-08T01:40:30.313Z,1001.01
2017-09-08T01:41:10.869Z,1001.01
2017-09-08T01:41:51.435Z,1001.03
2017-09-08T01:42:32.005Z,1001.06
2017-09-08T01:43:12.566Z,1001.01
2017-09-08T01:43:53.128Z,1001.01
2017-09-08T01:44:33.698Z,1001.01
2017-09-08T01:45:14.246Z,1001
2017-09-08T01:45:54.825Z,1001.04
2017-09-08T01:46:35.346Z,1001.05
2017-09-08T01:47:15.920Z,1001.05
2017-09-08T01:47:56.432Z,1001.05
2017-09-08T01:48:36.997Z,1001.07
2017-09-08T01:49:17.570Z,1001.01
2017-09-08T01:49:58.132Z,1001
2017-09-08T01:50:38.680Z,1000.96
2017-09-08T01:51:19.227Z,1000.97
2017-09-08T01:51:59.713Z,1000.99
2017-09-08T01:52:40.258Z,1000.95
2017-09-08T01:53:20.806Z,1000.95
2017-09-08T01:54:01.368Z,1000.89
2017-09-08T01:54:41.932Z,1000.94
2017-09-08T01:55:22.484Z,1000.92
2017-09-08T01:56:03.035Z,1000.91
2017-09-08T01:56:43.608Z,1000.91
2017-09-08T01:57:24.169Z,1000.92
2017-09-08T01:58:04.703Z,1000.9
2017-09-08T01:58:45.276Z,1000.91
2017-09-08T01:59:25.794Z,1000.94
2017-09-08T02:00:06.329Z,1000.89
2017-09-08T02:00:46.867Z,1000.89
2017-09-08T02:01:27.407Z,1000.85
2017-09-08T02:02:07.986Z,1000.88
2017-09-08T02:02:48.525Z,1000.89
2017-09-08T02:03:29.089Z,1000.88
2017-09-08T02:04:09.639Z,1000.92
2017-09-08T02:04:50.240Z,1000.87
2017-09-08T02:05:30.802Z,1000.84
2017-09-08T02:06:11.377Z,1000.86
2017-09-08T02:06:51.967Z,1000.84
2017-09-08T02:07:32.517Z,1000.8
2017-09-08T02:08:13.087Z,1000.8
2017-09-08T02:08:53.631Z,1000.82
2017-09-08T02:09:34.188Z,1000.83
2017-09-08T02:10:14.734Z,1000.81
2017-09-08T02:10:55.321Z,1000.8
2017-09-08T02:11:35.863Z,1000.84
2017-09-08T02:12:16.371Z,1000.83
2017-09-08T02:12:56.904Z,1000.82
2017-09-08T02:13:37.448Z,1000.79
2017-09-08T02:14:17.967Z,1000.81
2017-09-08T02:14:58.529Z,1000.84
2017-09-08T02:15:39.109Z,1000.81
2017-09-08T02:16:19.664Z,1000.8
2017-09-08T02:17:00.213Z,1000.84
2017-09-08T02:17:40.761Z,1000.79
2017-09-08T02:18:21.322Z,1000.81
2017-09-08T02:19:01.858Z,1000.74
2017-09-08T02:19:42.398Z,1000.79
2017-09-08T02:20:22.963Z,1000.77
2017-09-08T02:21:03.512Z,1000.74
2017-09-08T02:21:44.040Z,1000.74
2017-09-08T02:22:24.591Z,1000.76
2017-09-08T02:23:05.158Z,1000.74
2017-09-08T02:23:45.741Z,1000.77
2017-09-08T02:24:26.311Z,1000.72
2017-09-08T02:25:06.883Z,1000.71
2017-09-08T02:25:47.414Z,1000.7
2017-09-08T02:26:27.986Z,1000.71
2017-09-08T02:27:08.553Z,1000.66
2017-09-08T02:27:49.089Z,1000.68
2017-09-08T02:28:29.649Z,1000.68
2017-09-08T02:29:10.203Z,1000.67
2017-09-08T02:29:50.743Z,1000.67
2017-09-08T02:30:31.299Z,1000.64
2017-09-08T02:31:11.867Z,1000.71
2017-09-08T02:31:52.423Z,1000.67
2017-09-08T02:32:32.958Z,1000.69
2017-09-08T02:33:13.516Z,1000.7
2017-09-08T02:33:54.070Z,1000.72
2017-09-08T02:34:34.617Z,1000.68
2017-09-08T02:35:15.143Z,1000.69
2017-09-08T02:35:55.692Z,1000.69
2017-09-08T02:36:36.264Z,1000.71
2017-09-08T02:37:16.822Z,1000.66
2017-09-08T02:37:57.333Z,1000.73
2017-09-08T02:38:37.890Z,1000.77
2017-09-08T02:39:18.475Z,1000.76
2017-09-08T02:39:59.040Z,1000.78
2017-09-08T02:40:39.566Z,1000.74
2017-09-08T02:41:20.111Z,1000.74
2017-09-08T02:42:00.668Z,1000.73
2017-09-08T02:42:41.218Z,1000.75
2017-09-08T02:43:21.774Z,1000.78
2017-09-08T02:44:02.331Z,1000.72
2017-09-08T02:44:42.864Z,1000.78
2017-09-08T02:45:23.419Z,1000.74
2017-09-08T02:46:03.969Z,1000.78
2017-09-08T02:46:44.514Z,1000.77
2017-09-08T02:47:25.061Z,1000.76
2017-09-08T02:48:05.615Z,1000.73
2017-09-08T02:48:46.159Z,1000.71
2017-09-08T02:49:26.715Z,1000.73
2017-09-08T02:50:07.273Z,1000.73
2017-09-08T02:50:47.816Z,1000.71
2017-09-08T02:51:28.367Z,1000.7
2017-09-08T02:52:08.932Z,1000.66
2017-09-08T02:52:49.488Z,1000.64
2017-09-08T02:53:30.012Z,1000.67
2017-09-08T02:54:10.579Z,1000.61
2017-09-08T02:54:51.146Z,1000.66
2017-09-08T02:55:31.689Z,1000.63
2017-09-08T02:56:12.230Z,1000.59
2017-09-08T02:56:52.779Z,1000.62
2017-09-08T02:57:33.323Z,1000.63
2017-09-08T02:58:13.865Z,1000.6
2017-09-08T02:58:54.443Z,1000.58
2017-09-08T02:59:35.014Z,1000.57
2017-09-08T03:00:15.508Z,1000.55
2017-09-08T03:00:56.065Z,1000.59
2017-09-08T03:01:36.653Z,1000.57
2017-09-08T03:02:17.205Z,1000.52
2017-09-08T03:02:57.767Z,1000.56
2017-09-08T03:03:38.338Z,1000.58
2017-09-08T03:04:18.885Z,1000.55
2017-09-08T03:04:59.455Z,1000.58
2017-09-08T03:05:40.021Z,1000.58
2017-09-08T03:06:20.588Z,1000.54
2017-09-08T03:07:01.127Z,1000.52
2017-09-08T03:07:41.686Z,1000.55
2017-09-08T03:08:22.257Z,1000.49
2017-09-08T03:09:02.851Z,1000.47
2017-09-08T03:09:43.369Z,1000.49
2017-09-08T03:10:23.920Z,1000.5
2017-09-08T03:11:04.462Z,1000.43
2017-09-08T03:11:45.056Z,1000.41
2017-09-08T03:12:25.583Z,1000.46
2017-09-08T03:13:06.173Z,1000.48
2017-09-08T03:13:46.734Z,1000.47
2017-09-08T03:14:27.279Z,1000.52
2017-09-08T03:15:07.782Z,1000.48
2017-09-08T03:15:48.362Z,1000.49
2017-09-08T03:16:28.917Z,1000.46
2017-09-08T03:17:09.431Z,1000.45
2017-09-08T03:17:50.017Z,1000.49
2017-09-08T03:18:30.525Z,1000.5
2017-09-08T03:19:11.048Z,1000.47
2017-09-08T03:19:51.600Z,1000.41
2017-09-08T03:20:32.138Z,1000.41
2017-09-08T03:21:12.668Z,1000.52
2017-09-08T03:21:53.214Z,1000.48
2017-09-08T03:22:33.799Z,1000.5
2017-09-08T03:23:14.365Z,1000.47
2017-09-08T03:23:54.921Z,1000.5
2017-09-08T03:24:35.493Z,1000.49
2017-09-08T03:25:16.066Z,1000.46
2017-09-08T03:25:56.633Z,1000.52
2017-09-08T03:26:37.198Z,1000.47
2017-09-08T03:27:17.747Z,1000.52
2017-09-08T03:27:58.300Z,1000.48
2017-09-08T03:28:38.875Z,1000.5
2017-09-08T03:29:19.404Z,1000.48
2017-09-08T03:29:59.958Z,1000.48
2017-09-08T03:30:40.533Z,1000.47
2017-09-08T03:31:21.095Z,1000.48
2017-09-08T03:32:01.656Z,1000.5
2017-09-08T03:32:42.202Z,1000.54
2017-09-08T03:33:22.740Z,1000.52
2017-09-08T03:34:03.281Z,1000.51
2017-09-08T03:34:43.833Z,1000.48
2017-09-08T03:35:24.392Z,1000.51
2017-09-08T03:36:04.942Z,1000.47
2017-09-08T03:36:45.478Z,1000.46
2017-09-08T03:37:26.026Z,1000.49
2017-09-08T03:38:06.579Z,1000.45
2017-09-08T03:38:47.846Z,1000.46
2017-09-08T03:39:27.685Z,1000.47
2017-09-08T03:40:08.246Z,1000.46
2017-09-08T03:40:48.806Z,1000.45
2017-09-08T03:41:29.370Z,1000.47
2017-09-08T03:42:09.938Z,1000.42
2017-09-08T03:42:50.529Z,1000.42
2017-09-08T03:43:31.072Z,1000.43
2017-09-08T03:44:11.619Z,1000.41
2017-09-08T03:44:52.169Z,1000.43
2017-09-08T03:45:32.727Z,1000.41
2017-09-08T03:46:13.261Z,1000.41
2017-09-08T03:46:53.810Z,1000.4
2017-09-08T03:47:34.382Z,1000.44
2017-09-08T03:48:14.962Z,1000.43
2017-09-08T03:48:55.509Z,1000.43
2017-09-08T03:49:36.040Z,1000.44
2017-09-08T03:50:16.604Z,1000.44
2017-09-08T03:50:57.164Z,1000.43
2017-09-08T03:51:37.712Z,1000.46
2017-09-08T03:52:18.364Z,1000.44
2017-09-08T03:52:58.940Z,1000.46
2017-09-08T03:53:39.476Z,1000.47
2017-09-08T03:54:20.019Z,1000.51
2017-09-08T03:55:00.568Z,1000.48
2017-09-08T03:55:41.113Z,1000.45
2017-09-08T03:56:21.687Z,1000.44
2017-09-08T03:57:02.248Z,1000.42
2017-09-08T03:57:42.748Z,1000.4
2017-09-08T03:58:23.327Z,1000.4
2017-09-08T03:59:03.850Z,1000.42
2017-09-08T03:59:44.405Z,1000.36
2017-09-08T04:00:24.970Z,1000.35
2017-09-08T04:01:05.525Z,1000.34
2017-09-08T04:01:46.037Z,1000.36
2017-09-08T04:02:26.589Z,1000.32
2017-09-08T04:03:07.164Z,1000.34
2017-09-08T04:03:47.731Z,1000.31
2017-09-08T04:04:28.279Z,1000.29
2017-09-08T04:05:08.838Z,1000.28
2017-09-08T04:05:49.406Z,1000.29
2017-09-08T04:06:29.934Z,1000.26
2017-09-08T04:07:10.501Z,1000.31
2017-09-08T04:07:51.036Z,1000.26
2017-09-08T04:08:31.584Z,1000.29
2017-09-08T04:09:12.126Z,1000.24
2017-09-08T04:09:52.693Z,1000.26
2017-09-08T04:10:33.246Z,1000.3
2017-09-08T04:11:13.808Z,1000.25
2017-09-08T04:11:54.391Z,1000.24
2017-09-08T04:12:34.905Z,1000.25
2017-09-08T04:13:15.463Z,1000.25
2017-09-08T04:13:55.997Z,1000.22
2017-09-08T04:14:36.583Z,1000.2
2017-09-08T04:15:17.083Z,1000.22
2017-09-08T04:15:57.656Z,1000.17
2017-09-08T04:16:38.199Z,1000.18
2017-09-08T04:17:18.747Z,1000.1
2017-09-08T04:17:59.319Z,1000.1
2017-09-08T04:18:39.884Z,1000.11
2017-09-08T04:19:20.424Z,1000.07
2017-09-08T04:20:00.984Z,1000.05
2017-09-08T04:20:41.530Z,1000.04
2017-09-08T04:21:22.066Z,1000.02
2017-09-08T04:22:02.627Z,1000.03
2017-09-08T04:22:43.161Z,1000.03
2017-09-08T04:23:23.712Z,1000
2017-09-08T04:24:04.314Z,1000
2017-09-08T04:24:44.847Z,999.99
2017-09-08T04:25:25.401Z,1000.02
2017-09-08T04:26:05.949Z,999.94
2017-09-08T04:26:46.534Z,999.99
2017-09-08T04:27:27.099Z,999.98
2017-09-08T04:28:07.666Z,999.93
2017-09-08T04:28:48.240Z,999.96
2017-09-08T04:29:28.758Z,999.95
2017-09-08T04:30:09.319Z,999.9
2017-09-08T04:30:49.827Z,999.97
2017-09-08T04:31:30.368Z,999.99
2017-09-08T04:32:10.918Z,999.94
2017-09-08T04:32:51.477Z,999.9
2017-09-08T04:33:32.037Z,999.94
2017-09-08T04:34:12.601Z,999.95
2017-09-08T04:34:53.164Z,999.91
2017-09-08T04:35:33.725Z,999.95
2017-09-08T04:36:14.275Z,999.97
2017-09-08T04:36:54.808Z,999.97
2017-09-08T04:37:35.370Z,999.96
2017-09-08T04:38:15.916Z,999.93
2017-09-08T04:38:56.472Z,999.96
2017-09-08T04:39:37.063Z,999.96
2017-09-08T04:40:17.590Z,999.97
2017-09-08T04:40:58.138Z,999.93
2017-09-08T04:41:38.705Z,999.98
2017-09-08T04:42:19.244Z,1000.01
2017-09-08T04:42:59.798Z,999.98
2017-09-08T04:43:40.363Z,999.95
2017-09-08T04:44:20.913Z,1000
2017-09-08T04:45:01.475Z,999.98
2017-09-08T04:45:42.026Z,999.99
2017-09-08T04:46:22.602Z,999.99
2017-09-08T04:47:03.153Z,999.97
2017-09-08T04:47:43.709Z,1000.04
2017-09-08T04:48:24.278Z,999.98
2017-09-08T04:49:04.850Z,1000
2017-09-08T04:49:45.401Z,1000.03
2017-09-08T04:50:25.968Z,999.99
2017-09-08T04:51:06.517Z,1000
2017-09-08T04:51:47.089Z,1000.03
2017-09-08T04:52:27.637Z,999.99
2017-09-08T04:53:08.206Z,1000.02
2017-09-08T04:53:48.762Z,1000.05
2017-09-08T04:54:29.318Z,1000.02
2017-09-08T04:55:09.869Z,1000
2017-09-08T04:55:50.433Z,1000.03
2017-09-08T04:56:30.985Z,1000.04
2017-09-08T04:57:11.548Z,1000.04
2017-09-08T04:57:52.084Z,1000
2017-09-08T04:58:32.651Z,1000.04
2017-09-08T04:59:13.195Z,999.99
2017-09-08T04:59:53.745Z,1000.03
2017-09-08T05:00:34.327Z,999.97
2017-09-08T05:01:16.385Z,999.94
2017-09-08T05:02:03.321Z,999.95
2017-09-08T05:02:43.876Z,999.99
2017-09-08T05:03:24.625Z,999.97
2017-09-08T05:04:05.820Z,999.95
2017-09-08T05:04:46.581Z,1000.01
2017-09-08T05:05:27.110Z,1000.01
2017-09-08T05:06:07.708Z,1000.03
2017-09-08T05:06:48.279Z,1000.02
2017-09-08T05:07:28.864Z,1000
2017-09-08T05:08:09.403Z,1000.03
2017-09-08T05:08:50.176Z,1000.01
2017-09-08T05:09:30.663Z,1000.01
2017-09-08T05:10:11.238Z,999.95
2017-09-08T05:10:51.778Z,999.98
2017-09-08T05:11:32.321Z,1000.02
2017-09-08T05:12:12.876Z,1000.02
2017-09-08T05:12:53.449Z,1000.04
2017-09-08T05:13:33.996Z,1000.03
2017-09-08T05:14:14.543Z,1000.04
2017-09-08T05:14:55.076Z,1000.05
2017-09-08T05:15:35.684Z,1000.04
2017-09-08T05:16:16.381Z,1000.01
2017-09-08T05:16:56.950Z,1000.01
2017-09-08T05:17:37.625Z,1000.03
2017-09-08T05:18:18.179Z,1000.01
2017-09-08T05:18:58.775Z,999.95
2017-09-08T05:19:39.342Z,999.94
2017-09-08T05:20:19.897Z,999.98
2017-09-08T05:21:00.464Z,999.95
2017-09-08T05:21:41.033Z,999.97
2017-09-08T05:22:21.595Z,999.96
2017-09-08T05:23:02.164Z,999.96
2017-09-08T05:23:42.741Z,999.94
2017-09-08T05:24:23.320Z,999.96
2017-09-08T05:25:03.886Z,999.98
2017-09-08T05:25:44.444Z,999.98
2017-09-08T05:26:25.006Z,1000.04
2017-09-08T05:27:05.567Z,999.99
2017-09-08T05:27:46.122Z,999.98
2017-09-08T05:28:26.683Z,1000
2017-09-08T05:29:07.232Z,999.96
2017-09-08T05:29:47.795Z,999.93
2017-09-08T05:30:28.360Z,999.93
2017-09-08T05:31:08.919Z,999.97
2017-09-08T05:31:49.492Z,999.94
2017-09-08T05:32:30.040Z,999.96
2017-09-08T05:33:10.673Z,999.93
2017-09-08T05:33:51.243Z,999.96
2017-09-08T05:34:31.810Z,999.86
2017-09-08T05:35:12.372Z,999.97
2017-09-08T05:35:52.923Z,999.9
2017-09-08T05:36:33.611Z,999.92
2017-09-08T05:37:14.168Z,999.91
2017-09-08T05:37:54.718Z,999.88
2017-09-08T05:38:35.300Z,999.89
2017-09-08T05:39:15.850Z,999.87
2017-09-08T05:39:56.408Z,999.86
2017-09-08T05:40:36.980Z,999.86
2017-09-08T05:41:17.537Z,999.86
2017-09-08T05:41:58.102Z,999.83
2017-09-08T05:42:38.665Z,999.87
2017-09-08T05:43:19.895Z,999.86
2017-09-08T05:43:59.833Z,999.9
2017-09-08T05:44:40.401Z,999.85
2017-09-08T05:45:20.952Z,999.8
2017-09-08T05:46:01.523Z,999.87
2017-09-08T05:46:42.086Z,999.81
2017-09-08T05:47:22.640Z,999.86
2017-09-08T05:48:03.186Z,999.81
2017-09-08T05:48:43.732Z,999.79
2017-09-08T05:49:24.290Z,999.79
2017-09-08T05:50:04.842Z,999.79
2017-09-08T05:50:45.391Z,999.78
2017-09-08T05:51:25.952Z,999.79
2017-09-08T05:52:06.504Z,999.76
2017-09-08T05:52:47.064Z,999.8
2017-09-08T05:53:27.650Z,999.77
2017-09-08T05:54:08.221Z,999.84
2017-09-08T05:54:48.788Z,999.77
2017-09-08T05:55:29.344Z,999.79
2017-09-08T05:56:09.936Z,999.78
2017-09-08T05:56:50.510Z,999.78
2017-09-08T05:57:31.078Z,999.78
2017-09-08T05:58:11.639Z,999.75
2017-09-08T05:58:52.314Z,999.71
2017-09-08T05:59:32.906Z,999.7
2017-09-08T06:00:13.445Z,999.72
2017-09-08T06:00:54.020Z,999.74
2017-09-08T06:01:34.614Z,999.75
2017-09-08T06:02:15.153Z,999.72
2017-09-08T06:02:55.821Z,999.75
2017-09-08T06:03:36.365Z,999.74
2017-09-08T06:04:16.945Z,999.78
2017-09-08T06:04:57.500Z,999.75
2017-09-08T06:05:38.032Z,999.74
2017-09-08T06:06:18.585Z,999.73
2017-09-08T06:06:59.082Z,999.75
2017-09-08T06:07:39.662Z,999.72
2017-09-08T06:08:20.236Z,999.72
2017-09-08T06:09:00.804Z,999.67
2017-09-08T06:09:41.402Z,999.68
2017-09-08T06:10:21.952Z,999.66
2017-09-08T06:11:02.551Z,999.66
2017-09-08T06:11:43.138Z,999.65
2017-09-08T06:12:23.680Z,999.61
2017-09-08T06:13:04.251Z,999.59
2017-09-08T06:13:44.799Z,999.64
2017-09-08T06:14:25.366Z,999.62
2017-09-08T06:15:05.923Z,999.62
2017-09-08T06:15:46.477Z,999.62
2017-09-08T06:16:27.050Z,999.62
2017-09-08T06:17:07.613Z,999.58
2017-09-08T06:17:48.182Z,999.54
2017-09-08T06:18:28.760Z,999.51
2017-09-08T06:19:09.310Z,999.55
2017-09-08T06:19:49.867Z,999.51
2017-09-08T06:20:30.487Z,999.51
2017-09-08T06:21:11.050Z,999.52
2017-09-08T06:21:51.533Z,999.47
2017-09-08T06:22:32.041Z,999.46
2017-09-08T06:23:12.580Z,999.47
2017-09-08T06:23:53.113Z,999.45
2017-09-08T06:24:33.672Z,999.4
2017-09-08T06:25:14.171Z,999.4
2017-09-08T06:25:54.734Z,999.35
2017-09-08T06:26:35.265Z,999.33
2017-09-08T06:27:15.784Z,999.32
2017-09-08T06:27:56.347Z,999.33
2017-09-08T06:28:36.911Z,999.28
2017-09-08T06:29:17.477Z,999.28
2017-09-08T06:29:58.006Z,999.28
2017-09-08T06:30:38.549Z,999.33
2017-09-08T06:31:19.094Z,999.41
2017-09-08T06:31:59.673Z,999.33
2017-09-08T06:32:40.200Z,999.32
2017-09-08T06:33:20.756Z,999.35
2017-09-08T06:34:01.328Z,999.35
2017-09-08T06:34:41.888Z,999.35
2017-09-08T06:35:22.435Z,999.34
2017-09-08T06:36:02.988Z,999.38
2017-09-08T06:36:43.521Z,999.4
2017-09-08T06:37:24.081Z,999.34
2017-09-08T06:38:04.633Z,999.33
2017-09-08T06:38:45.187Z,999.35
2017-09-08T06:39:25.726Z,999.34
2017-09-08T06:40:06.287Z,999.35
2017-09-08T06:40:46.876Z,999.31
2017-09-08T06:41:27.414Z,999.35
2017-09-08T06:42:07.927Z,999.33
2017-09-08T06:42:48.489Z,999.36
2017-09-08T06:43:29.045Z,999.31
2017-09-08T06:44:09.604Z,999.33
2017-09-08T06:44:50.128Z,999.33
2017-09-08T06:45:30.695Z,999.3
2017-09-08T06:46:11.248Z,999.32
2017-09-08T06:46:51.786Z,999.3
2017-09-08T06:47:32.380Z,999.32
2017-09-08T06:48:12.954Z,999.32
2017-09-08T06:48:53.553Z,999.37
2017-09-08T06:49:34.089Z,999.35
2017-09-08T06:50:14.650Z,999.33
2017-09-08T06:50:55.207Z,999.33
2017-09-08T06:51:35.800Z,999.28
2017-09-08T06:52:16.349Z,999.3
2017-09-08T06:52:56.917Z,999.36
2017-09-08T06:53:37.496Z,999.33
2017-09-08T06:54:18.056Z,999.34
2017-09-08T06:54:58.629Z,999.29
2017-09-08T06:55:39.179Z,999.33
2017-09-08T06:56:19.784Z,999.28
2017-09-08T06:57:00.324Z,999.3
2017-09-08T06:57:40.869Z,999.28
2017-09-08T06:58:21.465Z,999.27
2017-09-08T06:59:01.941Z,999.31
2017-09-08T06:59:42.497Z,999.3
2017-09-08T07:00:23.002Z,999.28
2017-09-08T07:01:03.552Z,999.33
2017-09-08T07:01:44.112Z,999.23
2017-09-08T07:02:24.635Z,999.22
2017-09-08T07:03:05.178Z,999.23
2017-09-08T07:03:45.799Z,999.27
2017-09-08T07:04:26.310Z,999.29
2017-09-08T07:05:06.873Z,999.26
2017-09-08T07:05:47.402Z,999.27
2017-09-08T07:06:28.014Z,999.26
2017-09-08T07:07:09.504Z,999.25
2017-09-08T07:07:50.056Z,999.24
2017-09-08T07:08:30.613Z,999.26
2017-09-08T07:09:11.176Z,999.23
2017-09-08T07:09:51.723Z,999.28
2017-09-08T07:10:32.225Z,999.27
2017-09-08T07:11:12.773Z,999.23
2017-09-08T07:11:53.350Z,999.23
2017-09-08T07:12:33.882Z,999.23
2017-09-08T07:13:14.418Z,999.21
2017-09-08T07:13:54.943Z,999.15
2017-09-08T07:14:35.470Z,999.11
2017-09-08T07:15:16.048Z,999.17
2017-09-08T07:15:56.661Z,999.14
2017-09-08T07:16:37.204Z,999.12
2017-09-08T07:17:17.677Z,999.13
2017-09-08T07:17:58.228Z,999.12
2017-09-08T07:18:38.763Z,999.15
2017-09-08T07:19:19.324Z,999.11
2017-09-08T07:19:59.877Z,999.15
2017-09-08T07:20:40.380Z,999.15
2017-09-08T07:21:20.981Z,999.14
2017-09-08T07:22:01.546Z,999.17
2017-09-08T07:22:42.086Z,999.13
2017-09-08T07:23:22.643Z,999.16
2017-09-08T07:24:03.197Z,999.18
2017-09-08T07:24:43.707Z,999.16
2017-09-08T07:25:24.223Z,999.19
2017-09-08T07:26:04.787Z,999.17
2017-09-08T07:26:45.359Z,999.17
2017-09-08T07:27:25.902Z,999.15
2017-09-08T07:28:06.443Z,999.11
2017-09-08T07:28:46.980Z,999.11
2017-09-08T07:29:27.519Z,999.07
2017-09-08T07:30:08.098Z,999.05
2017-09-08T07:30:48.658Z,999.01
2017-09-08T07:31:29.220Z,999.03
2017-09-08T07:32:09.688Z,999.04
2017-09-08T07:32:50.308Z,999.02
2017-09-08T07:33:30.808Z,999.06
2017-09-08T07:34:11.380Z,999.02
2017-09-08T07:34:51.926Z,999.03
2017-09-08T07:35:32.477Z,999.04
2017-09-08T07:36:13.010Z,999.04
2017-09-08T07:36:53.590Z,999.02
2017-09-08T07:37:34.106Z,999.03
2017-09-08T07:38:14.647Z,999
2017-09-08T07:38:55.203Z,999.04
2017-09-08T07:39:35.708Z,999
2017-09-08T07:40:16.279Z,998.98
2017-09-08T07:40:56.827Z,998.96
2017-09-08T07:41:37.379Z,999.03
2017-09-08T07:42:17.921Z,998.94
2017-09-08T07:42:58.472Z,998.99
2017-09-08T07:43:39.005Z,998.94
2017-09-08T07:44:19.598Z,998.92
2017-09-08T07:45:00.228Z,998.97
2017-09-08T07:45:40.760Z,998.96
2017-09-08T07:46:21.295Z,998.91
2017-09-08T07:47:01.810Z,998.97
2017-09-08T07:47:42.373Z,998.93
2017-09-08T07:48:22.873Z,998.95
2017-09-08T07:49:03.438Z,998.99
2017-09-08T07:49:43.956Z,998.96
2017-09-08T07:50:24.461Z,998.94
2017-09-08T07:51:05.023Z,998.92
2017-09-08T07:51:45.573Z,998.94
2017-09-08T07:52:26.120Z,998.96
2017-09-08T07:53:06.686Z,998.93
2017-09-08T07:53:47.243Z,998.98
2017-09-08T07:54:27.815Z,998.97
2017-09-08T07:55:08.362Z,998.99
2017-09-08T07:55:48.910Z,999
2017-09-08T07:56:29.466Z,998.9
2017-09-08T07:57:10.052Z,998.98
2017-09-08T07:57:50.565Z,999.02
2017-09-08T07:58:31.119Z,998.98
2017-09-08T07:59:11.660Z,999
2017-09-08T07:59:52.218Z,999.02
2017-09-08T08:00:32.795Z,999
2017-09-08T08:01:13.346Z,999
2017-09-08T08:01:53.879Z,999.02
2017-09-08T08:02:34.462Z,999.01
2017-09-08T08:03:15.017Z,999.03
2017-09-08T08:03:55.587Z,999.03
2017-09-08T08:04:36.172Z,999.01
2017-09-08T08:05:16.696Z,999.05
2017-09-08T08:05:57.267Z,999.01
2017-09-08T08:06:37.835Z,999.02
2017-09-08T08:07:18.382Z,999.07
2017-09-08T08:07:58.946Z,999.05
2017-09-08T08:08:39.529Z,999.06
2017-09-08T08:09:20.081Z,999.01
2017-09-08T08:10:00.653Z,999.09
2017-09-08T08:10:41.198Z,999.08
2017-09-08T08:11:21.769Z,999.1
2017-09-08T08:12:02.302Z,999.11
2017-09-08T08:12:42.878Z,999.06
2017-09-08T08:13:23.417Z,999.1
2017-09-08T08:14:04.030Z,999.14
2017-09-08T08:14:44.559Z,999.19
2017-09-08T08:15:25.083Z,999.13
2017-09-08T08:16:05.649Z,999.17
2017-09-08T08:16:46.203Z,999.18
2017-09-08T08:17:26.775Z,999.2
2017-09-08T08:18:07.343Z,999.16
2017-09-08T08:18:47.906Z,999.17
2017-09-08T08:19:28.468Z,999.17